createdAt,value
2023-01-02T00:00:55.023Z,9.86
2023-01-02T00:03:21.717Z,9.86
2023-01-02T00:05:48.343Z,9.86
2023-01-02T00:08:16.818Z,9.76
2023-01-02T00:10:44.235Z,9.86
2023-01-02T00:13:10.702Z,9.93
2023-01-02T00:15:38.025Z,9.84
2023-01-02T00:18:05.315Z,9.87
2023-01-02T00:20:31.771Z,9.78
2023-01-02T00:22:58.181Z,9.80
2023-01-02T00:25:24.643Z,9.81
2023-01-02T00:27:51.071Z,9.88
2023-01-02T00:30:17.572Z,9.87
2023-01-02T00:32:43.965Z,9.87
2023-01-02T00:35:10.401Z,9.91
2023-01-02T00:37:36.942Z,9.93
2023-01-02T00:40:04.046Z,9.95
2023-01-02T00:42:30.948Z,9.99
2023-01-02T00:44:57.348Z,9.92
2023-01-02T00:47:23.715Z,9.77
2023-01-02T00:49:50.172Z,9.77
2023-01-02T00:52:16.554Z,9.88
2023-01-02T00:54:42.928Z,9.90
2023-01-02T00:57:09.470Z,9.83
2023-01-02T00:59:35.860Z,9.88
2023-01-02T01:02:02.408Z,9.88
2023-01-02T01:04:29.059Z,9.83
2023-01-02T01:06:55.465Z,9.74
2023-01-02T01:09:21.926Z,9.79
2023-01-02T01:11:48.423Z,9.81
2023-01-02T01:14:14.862Z,9.60
2023-01-02T01:16:41.844Z,9.66
2023-01-02T01:19:08.806Z,9.68
2023-01-02T01:21:35.551Z,9.62
2023-01-02T01:24:02.218Z,9.55
2023-01-02T01:26:28.663Z,9.61
2023-01-02T01:28:55.948Z,9.63
2023-01-02T01:31:24.349Z,9.61
2023-01-02T01:33:51.235Z,9.37
2023-01-02T01:36:21.440Z,9.44
2023-01-02T01:38:48.659Z,9.44
2023-01-02T01:41:18.026Z,9.45
2023-01-02T01:43:50.262Z,9.46
2023-01-02T01:46:29.371Z,9.47
2023-01-02T01:49:19.891Z,9.40
2023-01-02T01:52:06.255Z,9.27
2023-01-02T01:54:37.398Z,9.36
2023-01-02T01:57:12.093Z,9.34
2023-01-02T01:59:39.246Z,9.37
2023-01-02T02:02:06.618Z,9.39
2023-01-02T02:04:33.945Z,9.44
2023-01-02T02:07:00.597Z,9.49
2023-01-02T02:09:34.937Z,9.50
2023-01-02T02:12:02.623Z,9.50
2023-01-02T02:14:29.014Z,9.51
2023-01-02T02:17:01.555Z,9.47
2023-01-02T02:19:49.217Z,9.48
2023-01-02T02:22:40.355Z,9.48
2023-01-02T02:25:26.971Z,9.54
2023-01-02T02:28:02.618Z,9.50
2023-01-02T02:30:40.938Z,9.55
2023-01-02T02:33:25.727Z,9.55
2023-01-02T02:35:55.727Z,9.51
2023-01-02T02:38:38.852Z,9.53
2023-01-02T02:41:32.725Z,9.58
2023-01-02T02:44:05.181Z,9.48
2023-01-02T02:47:01.341Z,9.44
2023-01-02T02:50:09.453Z,9.56
2023-01-02T02:52:49.475Z,9.62
2023-01-02T02:55:30.468Z,9.61
2023-01-02T02:58:00.215Z,9.63
2023-01-02T03:00:26.688Z,9.57
2023-01-02T03:02:53.262Z,9.63
2023-01-02T03:05:30.375Z,9.61
2023-01-02T03:08:07.996Z,9.61
2023-01-02T03:10:51.763Z,9.67
2023-01-02T03:13:46.064Z,9.67
2023-01-02T03:16:36.884Z,9.57
2023-01-02T03:19:11.445Z,9.61
2023-01-02T03:21:59.351Z,9.59
2023-01-02T03:24:26.793Z,9.55
2023-01-02T03:26:59.278Z,9.57
2023-01-02T03:29:42.427Z,9.58
2023-01-02T03:32:25.040Z,9.56
2023-01-02T03:34:52.883Z,9.54
2023-01-02T03:37:25.909Z,9.56
2023-01-02T03:39:56.595Z,9.53
2023-01-02T03:42:33.872Z,9.50
2023-01-02T03:45:30.946Z,9.51
2023-01-02T03:48:14.639Z,9.52
2023-01-02T03:50:52.630Z,9.52
2023-01-02T03:53:19.871Z,9.51
2023-01-02T03:56:01.948Z,9.49
2023-01-02T03:58:51.776Z,9.48
2023-01-02T04:01:53.143Z,9.54
2023-01-02T04:04:44.184Z,9.59
2023-01-02T04:07:25.949Z,9.65
2023-01-02T04:09:53.192Z,9.68
2023-01-02T04:12:21.689Z,9.74
2023-01-02T04:14:52.154Z,9.77
2023-01-02T04:17:21.507Z,9.80
2023-01-02T04:19:52.832Z,9.83
2023-01-02T04:22:25.708Z,9.84
2023-01-02T04:25:08.023Z,9.86
2023-01-02T04:27:44.782Z,9.91
2023-01-02T04:30:11.361Z,9.95
2023-01-02T04:32:43.151Z,9.98
2023-01-02T04:35:12.141Z,9.99
2023-01-02T04:37:41.493Z,10.04
2023-01-02T04:40:15.265Z,10.08
2023-01-02T04:42:41.630Z,10.14
2023-01-02T04:45:09.069Z,10.18
2023-01-02T04:47:35.537Z,10.22
2023-01-02T04:50:02.715Z,10.30
2023-01-02T04:52:35.049Z,10.36
2023-01-02T04:55:03.892Z,10.39
2023-01-02T04:57:31.478Z,10.42
2023-01-02T04:59:57.863Z,10.50
2023-01-02T05:02:24.486Z,10.48
2023-01-02T05:04:50.953Z,10.56
2023-01-02T05:07:17.339Z,10.57
2023-01-02T05:09:43.795Z,10.61
2023-01-02T05:12:10.192Z,10.72
2023-01-02T05:14:36.626Z,10.83
2023-01-02T05:17:03.031Z,10.87
2023-01-02T05:19:29.381Z,10.93
2023-01-02T05:22:14.479Z,10.92
2023-01-02T05:24:40.928Z,10.92
2023-01-02T05:27:07.427Z,10.98
2023-01-02T05:29:33.858Z,10.97
2023-01-02T05:32:00.306Z,10.99
2023-01-02T05:34:26.704Z,11.02
2023-01-02T05:36:53.095Z,11.06
2023-01-02T05:39:19.499Z,11.09
2023-01-02T05:41:45.902Z,11.10
2023-01-02T05:44:12.326Z,11.09
2023-01-02T05:46:39.633Z,11.11
2023-01-02T05:49:07.195Z,11.12
2023-01-02T05:51:34.296Z,11.13
2023-01-02T05:54:01.370Z,11.13
2023-01-02T05:56:29.413Z,11.18
2023-01-02T05:58:56.530Z,11.15
2023-01-02T06:01:28.531Z,11.14
2023-01-02T06:03:57.714Z,11.19
2023-01-02T06:06:26.970Z,11.17
2023-01-02T06:08:53.439Z,11.19
2023-01-02T06:11:19.908Z,11.17
2023-01-02T06:13:46.376Z,11.21
2023-01-02T06:16:12.904Z,11.26
2023-01-02T06:18:40.182Z,11.26
2023-01-02T06:21:15.457Z,11.27
2023-01-02T06:23:42.726Z,11.26
2023-01-02T06:26:11.248Z,11.27
2023-01-02T06:28:38.881Z,11.24
2023-01-02T06:31:11.352Z,11.28
2023-01-02T06:33:38.183Z,11.26
2023-01-02T06:36:07.830Z,11.26
2023-01-02T06:38:34.698Z,11.25
2023-01-02T06:41:02.622Z,11.29
2023-01-02T06:43:30.416Z,11.27
2023-01-02T06:45:58.997Z,11.30
2023-01-02T06:48:25.731Z,11.30
2023-01-02T06:50:52.155Z,11.34
2023-01-02T06:53:18.744Z,11.33
2023-01-02T06:55:56.777Z,11.30
2023-01-02T06:58:24.618Z,11.30
2023-01-02T07:00:51.748Z,11.31
2023-01-02T07:03:18.652Z,11.37
2023-01-02T07:05:45.425Z,11.36
2023-01-02T07:08:13.025Z,11.39
2023-01-02T07:10:39.680Z,11.44
2023-01-02T07:13:06.162Z,11.46
2023-01-02T07:15:33.417Z,11.41
2023-01-02T07:17:59.933Z,11.45
2023-01-02T07:20:26.351Z,11.50
2023-01-02T07:22:54.046Z,11.49
2023-01-02T07:25:21.511Z,11.48
2023-01-02T07:27:48.032Z,11.49
2023-01-02T07:30:14.826Z,11.51
2023-01-02T07:32:41.361Z,11.49
2023-01-02T07:35:08.300Z,11.50
2023-01-02T07:37:34.745Z,11.50
2023-01-02T07:40:01.152Z,11.52
2023-01-02T07:42:28.211Z,11.52
2023-01-02T07:44:54.642Z,11.54
2023-01-02T07:47:21.135Z,11.54
2023-01-02T07:49:47.558Z,11.57
2023-01-02T07:52:14.003Z,11.56
2023-01-02T07:54:40.415Z,11.56
2023-01-02T07:57:06.810Z,11.59
2023-01-02T07:59:33.179Z,11.58
2023-01-02T08:01:59.659Z,11.58
2023-01-02T08:04:26.194Z,11.62
2023-01-02T08:06:52.675Z,11.64
2023-01-02T08:09:19.251Z,11.70
2023-01-02T08:11:45.671Z,11.69
2023-01-02T08:14:12.101Z,11.73
2023-01-02T08:16:38.576Z,11.70
2023-01-02T08:19:05.229Z,11.70
2023-01-02T08:21:31.644Z,11.73
2023-01-02T08:23:58.029Z,11.76
2023-01-02T08:26:25.429Z,11.77
2023-01-02T08:28:51.919Z,11.75
2023-01-02T08:31:20.781Z,11.76
2023-01-02T08:33:47.641Z,11.80
2023-01-02T08:36:14.863Z,11.77
2023-01-02T08:38:42.075Z,11.78
2023-01-02T08:41:08.961Z,11.83
2023-01-02T08:43:36.455Z,11.88
2023-01-02T08:46:08.048Z,11.87
2023-01-02T08:48:35.286Z,11.86
2023-01-02T08:51:03.101Z,11.89
2023-01-02T08:53:29.546Z,11.90
2023-01-02T08:56:17.064Z,11.93
2023-01-02T08:58:47.309Z,11.90
2023-01-02T09:01:16.993Z,11.87
2023-01-02T09:03:43.457Z,11.99
2023-01-02T09:06:09.840Z,11.97
2023-01-02T09:08:36.254Z,11.97
2023-01-02T09:11:24.180Z,11.94
2023-01-02T09:13:50.704Z,11.93
2023-01-02T09:16:17.456Z,11.98
2023-01-02T09:18:43.980Z,11.93
2023-01-02T09:21:10.868Z,11.97
2023-01-02T09:23:37.265Z,11.99
2023-01-02T09:26:10.576Z,12.02
2023-01-02T09:28:37.136Z,12.02
2023-01-02T09:31:12.074Z,12.03
2023-01-02T09:33:43.361Z,12.06
2023-01-02T09:36:12.589Z,12.07
2023-01-02T09:38:39.183Z,12.09
2023-01-02T09:41:27.685Z,12.15
2023-01-02T09:44:02.344Z,12.12
2023-01-02T09:46:47.413Z,12.16
2023-01-02T09:49:27.788Z,12.20
2023-01-02T09:51:54.401Z,12.18
2023-01-02T09:54:25.996Z,12.17
2023-01-02T09:57:00.144Z,12.21
2023-01-02T09:59:32.023Z,12.16
2023-01-02T10:02:18.504Z,12.23
2023-01-02T10:05:03.216Z,12.25
2023-01-02T10:07:45.440Z,12.17
2023-01-02T10:10:27.317Z,12.23
2023-01-02T10:12:53.606Z,12.30
2023-01-02T10:15:26.657Z,12.24
2023-01-02T10:18:17.371Z,12.23
2023-01-02T10:20:49.324Z,12.23
2023-01-02T10:23:27.976Z,12.25
2023-01-02T10:26:00.386Z,12.25
2023-01-02T10:28:33.100Z,12.25
2023-01-02T10:31:07.908Z,12.27
2023-01-02T10:33:57.904Z,12.29
2023-01-02T10:36:26.751Z,12.30
2023-01-02T10:38:59.005Z,12.35
2023-01-02T10:41:28.227Z,12.37
2023-01-02T10:43:59.710Z,12.45
2023-01-02T10:46:34.314Z,12.42
2023-01-02T10:49:01.724Z,12.40
2023-01-02T10:51:29.479Z,12.48
2023-01-02T10:54:05.259Z,12.49
2023-01-02T10:56:34.455Z,12.48
2023-01-02T10:59:01.261Z,12.47
2023-01-02T11:01:28.348Z,12.48
2023-01-02T11:03:57.757Z,12.51
2023-01-02T11:06:39.258Z,12.53
2023-01-02T11:09:20.511Z,12.54
2023-01-02T11:12:11.735Z,12.56
2023-01-02T11:14:38.953Z,12.54
2023-01-02T11:17:14.326Z,12.54
2023-01-02T11:19:46.319Z,12.61
2023-01-02T11:22:16.779Z,12.64
2023-01-02T11:24:59.881Z,12.67
2023-01-02T11:27:36.112Z,12.65
2023-01-02T11:30:09.307Z,12.68
2023-01-02T11:32:38.901Z,12.68
2023-01-02T11:35:26.028Z,12.70
2023-01-02T11:37:53.210Z,12.64
2023-01-02T11:40:28.916Z,12.74
2023-01-02T11:43:16.323Z,12.70
2023-01-02T11:45:43.855Z,12.75
2023-01-02T11:48:15.180Z,12.78
2023-01-02T11:50:44.096Z,12.82
2023-01-02T11:53:13.553Z,12.80
2023-01-02T11:55:58.429Z,12.82
2023-01-02T11:58:30.655Z,12.80
2023-01-02T12:01:18.389Z,12.78
2023-01-02T12:03:45.228Z,12.79
2023-01-02T12:06:23.912Z,12.79
2023-01-02T12:09:05.656Z,12.83
2023-01-02T12:11:32.074Z,12.80
2023-01-02T12:14:05.051Z,12.82
2023-01-02T12:16:58.152Z,12.82
2023-01-02T12:19:38.397Z,12.82
2023-01-02T12:22:10.882Z,12.78
2023-01-02T12:25:05.199Z,12.80
2023-01-02T12:27:42.584Z,12.82
2023-01-02T12:30:13.552Z,12.80
2023-01-02T12:32:58.278Z,12.66
2023-01-02T12:35:42.809Z,12.67
2023-01-02T12:38:15.830Z,12.65
2023-01-02T12:41:05.168Z,12.66
2023-01-02T12:44:04.324Z,12.68
2023-01-02T12:46:59.895Z,12.77
2023-01-02T12:49:54.295Z,12.76
2023-01-02T12:52:42.486Z,12.76
2023-01-02T12:55:15.076Z,12.74
2023-01-02T12:57:55.039Z,12.78
2023-01-02T13:00:36.122Z,12.74
2023-01-02T13:03:23.161Z,12.78
2023-01-02T13:06:45.357Z,12.77
2023-01-02T13:09:35.651Z,12.76
2023-01-02T13:12:22.072Z,12.89
2023-01-02T13:15:28.148Z,12.93
2023-01-02T13:18:17.939Z,12.91
2023-01-02T13:20:50.865Z,12.91
2023-01-02T13:23:35.561Z,12.97
2023-01-02T13:26:10.990Z,12.97
2023-01-02T13:28:42.625Z,12.93
2023-01-02T13:31:44.793Z,12.96
2023-01-02T13:34:05.734Z,12.98
2023-01-02T13:36:40.883Z,12.97
2023-01-02T13:39:18.577Z,12.90
2023-01-02T13:42:20.271Z,12.91
2023-01-02T13:44:55.982Z,12.97
2023-01-02T13:47:34.390Z,12.95
2023-01-02T13:50:23.615Z,13.03
2023-01-02T13:53:05.275Z,13.01
2023-01-02T13:55:35.028Z,12.97
2023-01-02T13:58:26.243Z,12.97
2023-01-02T14:00:55.997Z,12.95
2023-01-02T14:03:23.138Z,12.92
2023-01-02T14:05:58.751Z,12.83
2023-01-02T14:08:31.261Z,12.75
2023-01-02T14:11:09.775Z,12.75
2023-01-02T14:13:50.283Z,12.64
2023-01-02T14:16:22.732Z,12.60
2023-01-02T14:19:02.769Z,12.61
2023-01-02T14:21:39.671Z,12.50
2023-01-02T14:24:17.975Z,12.53
2023-01-02T14:26:52.564Z,12.51
2023-01-02T14:29:20.054Z,12.36
2023-01-02T14:31:47.363Z,12.42
2023-01-02T14:34:23.514Z,12.36
2023-01-02T14:36:53.556Z,12.26
2023-01-02T14:39:30.438Z,12.23
2023-01-02T14:42:31.777Z,12.21
2023-01-02T14:45:03.168Z,12.10
2023-01-02T14:47:42.718Z,12.03
2023-01-02T14:50:16.479Z,11.96
2023-01-02T14:52:52.650Z,11.97
2023-01-02T14:55:23.656Z,11.86
2023-01-02T14:57:52.924Z,11.87
2023-01-02T15:00:28.742Z,11.76
2023-01-02T15:03:07.659Z,11.64
2023-01-02T15:05:39.277Z,11.66
2023-01-02T15:08:09.715Z,11.61
2023-01-02T15:10:55.086Z,11.62
2023-01-02T15:13:25.512Z,11.52
2023-01-02T15:15:55.151Z,11.52
2023-01-02T15:18:31.570Z,11.62
2023-01-02T15:21:09.267Z,11.51
2023-01-02T15:23:41.915Z,11.56
2023-01-02T15:26:34.755Z,11.54
2023-01-02T15:29:04.134Z,11.57
2023-01-02T15:31:31.068Z,11.55
2023-01-02T15:34:02.122Z,11.49
2023-01-02T15:36:38.563Z,11.43
2023-01-02T15:39:12.457Z,11.46
2023-01-02T15:41:50.525Z,11.41
2023-01-02T15:44:55.794Z,11.39
2023-01-02T15:47:27.909Z,11.43
2023-01-02T15:49:56.406Z,11.41
2023-01-02T15:52:26.447Z,11.33
2023-01-02T15:54:53.616Z,11.37
2023-01-02T15:57:26.413Z,11.34
2023-01-02T15:59:52.936Z,11.30
2023-01-02T16:02:36.768Z,11.28
2023-01-02T16:05:19.045Z,11.33
2023-01-02T16:07:52.112Z,11.24
2023-01-02T16:10:22.594Z,11.26
2023-01-02T16:12:55.960Z,11.31
2023-01-02T16:15:28.338Z,11.27
2023-01-02T16:17:56.972Z,11.25
2023-01-02T16:20:26.467Z,11.27
2023-01-02T16:23:07.904Z,11.29
2023-01-02T16:25:36.929Z,11.27
2023-01-02T16:28:36.091Z,11.26
2023-01-02T16:31:12.996Z,11.28
2023-01-02T16:33:41.765Z,11.30
2023-01-02T16:36:10.136Z,11.24
2023-01-02T16:38:59.447Z,11.18
2023-01-02T16:41:34.603Z,11.14
2023-01-02T16:44:04.966Z,11.12
2023-01-02T16:46:31.652Z,11.01
2023-01-02T16:49:04.948Z,11.00
2023-01-02T16:51:32.277Z,11.03
2023-01-02T16:53:58.773Z,11.05
2023-01-02T16:56:25.223Z,11.01
2023-01-02T16:58:51.675Z,11.07
2023-01-02T17:01:19.393Z,11.01
2023-01-02T17:03:45.937Z,10.93
2023-01-02T17:06:15.602Z,10.97
2023-01-02T17:08:42.568Z,10.88
2023-01-02T17:11:14.837Z,10.90
2023-01-02T17:13:41.249Z,10.84
2023-01-02T17:16:07.822Z,10.89
2023-01-02T17:18:34.285Z,10.87
2023-01-02T17:21:00.781Z,10.85
2023-01-02T17:23:27.258Z,10.68
2023-01-02T17:25:53.802Z,10.68
2023-01-02T17:28:20.474Z,10.62
2023-01-02T17:30:51.376Z,10.69
2023-01-02T17:33:18.457Z,10.74
2023-01-02T17:35:46.334Z,10.70
2023-01-02T17:38:12.794Z,10.59
2023-01-02T17:40:39.283Z,10.60
2023-01-02T17:43:06.593Z,10.59
2023-01-02T17:45:33.202Z,10.45
2023-01-02T17:48:10.455Z,10.49
2023-01-02T17:50:38.029Z,10.37
2023-01-02T17:53:04.502Z,10.32
2023-01-02T17:55:30.961Z,10.30
2023-01-02T17:58:00.266Z,10.26
2023-01-02T18:00:26.687Z,10.20
2023-01-02T18:02:53.331Z,10.20
2023-01-02T18:05:21.677Z,10.15
2023-01-02T18:07:48.133Z,10.05
2023-01-02T18:10:19.501Z,10.02
2023-01-02T18:12:47.335Z,10.07
2023-01-02T18:15:15.514Z,10.02
2023-01-02T18:17:42.648Z,10.11
2023-01-02T18:20:14.556Z,10.01
2023-01-02T18:22:48.550Z,10.04
2023-01-02T18:25:25.614Z,10.01
2023-01-02T18:27:58.002Z,10.07
2023-01-02T18:30:25.820Z,10.04
2023-01-02T18:33:13.363Z,9.99
2023-01-02T18:35:57.070Z,9.95
2023-01-02T18:38:30.514Z,10.00
2023-01-02T18:40:57.091Z,9.92
2023-01-02T18:43:37.481Z,9.92
2023-01-02T18:46:14.846Z,9.81
2023-01-02T18:48:41.746Z,9.87
2023-01-02T18:51:21.711Z,9.90
2023-01-02T18:53:50.714Z,9.94
2023-01-02T18:56:27.462Z,9.89
2023-01-02T18:59:30.768Z,9.88
2023-01-02T19:02:02.338Z,9.81
2023-01-02T19:04:35.136Z,9.84
2023-01-02T19:07:16.202Z,9.80
2023-01-02T19:09:42.600Z,9.71
2023-01-02T19:12:33.482Z,9.75
2023-01-02T19:15:01.761Z,9.81
2023-01-02T19:17:31.937Z,9.78
2023-01-02T19:19:59.926Z,9.78
2023-01-02T19:22:33.279Z,9.82
2023-01-02T19:25:08.579Z,9.74
2023-01-02T19:27:38.138Z,9.79
2023-01-02T19:30:27.978Z,9.81
2023-01-02T19:32:54.588Z,9.74
2023-01-02T19:35:38.541Z,9.70
2023-01-02T19:38:28.293Z,9.80
2023-01-02T19:40:55.072Z,9.69
2023-01-02T19:43:21.845Z,9.74
2023-01-02T19:45:48.642Z,9.70
2023-01-02T19:48:18.292Z,9.75
2023-01-02T19:50:44.987Z,9.78
2023-01-02T19:53:11.465Z,9.72
2023-01-02T19:55:38.353Z,9.78
2023-01-02T19:58:05.098Z,9.72
2023-01-02T20:00:31.587Z,9.84
2023-01-02T20:02:58.323Z,9.64
2023-01-02T20:05:25.147Z,9.69
2023-01-02T20:07:53.265Z,9.66
2023-01-02T20:10:20.402Z,9.66
2023-01-02T20:12:47.413Z,9.53
2023-01-02T20:15:26.455Z,9.54
2023-01-02T20:17:53.909Z,9.51
2023-01-02T20:20:23.126Z,9.48
2023-01-02T20:22:51.945Z,9.40
2023-01-02T20:25:23.823Z,9.38
2023-01-02T20:27:50.979Z,9.45
2023-01-02T20:30:23.972Z,9.41
2023-01-02T20:32:51.626Z,9.38
2023-01-02T20:35:18.317Z,9.40
2023-01-02T20:37:45.096Z,9.39
2023-01-02T20:40:11.975Z,9.34
2023-01-02T20:42:38.572Z,9.37
2023-01-02T20:45:06.287Z,9.33
2023-01-02T20:47:32.958Z,9.36
2023-01-02T20:49:59.585Z,9.34
2023-01-02T20:52:26.044Z,9.25
2023-01-02T20:54:52.601Z,9.26
2023-01-02T20:57:19.179Z,9.20
2023-01-02T20:59:45.875Z,9.20
2023-01-02T21:02:12.472Z,9.14
2023-01-02T21:04:39.156Z,9.19
2023-01-02T21:07:06.515Z,9.10
2023-01-02T21:09:33.270Z,9.11
2023-01-02T21:11:59.847Z,9.07
2023-01-02T21:14:26.448Z,9.04
2023-01-02T21:16:54.552Z,9.08
2023-01-02T21:19:21.374Z,9.04
2023-01-02T21:21:47.828Z,9.03
2023-01-02T21:24:14.365Z,9.07
2023-01-02T21:26:40.940Z,9.02
2023-01-02T21:29:07.353Z,9.04
2023-01-02T21:31:34.059Z,9.12
2023-01-02T21:34:00.746Z,9.09
2023-01-02T21:36:27.348Z,8.99
2023-01-02T21:38:53.872Z,8.94
2023-01-02T21:41:38.807Z,8.95
2023-01-02T21:44:05.452Z,8.85
2023-01-02T21:46:32.073Z,8.89
2023-01-02T21:48:58.605Z,8.94
2023-01-02T21:51:30.659Z,8.95
2023-01-02T21:53:59.256Z,8.87
2023-01-02T21:56:26.040Z,8.87
2023-01-02T21:58:52.713Z,8.85
2023-01-02T22:01:19.504Z,8.82
2023-01-02T22:03:46.527Z,8.95
2023-01-02T22:06:13.223Z,8.80
2023-01-02T22:08:39.791Z,8.80
2023-01-02T22:11:24.746Z,8.68
2023-01-02T22:13:51.262Z,8.71
2023-01-02T22:16:17.797Z,8.70
2023-01-02T22:18:44.677Z,8.66
2023-01-02T22:21:11.303Z,8.68
2023-01-02T22:23:37.943Z,8.71
2023-01-02T22:26:04.516Z,8.73
2023-01-02T22:28:31.237Z,8.66
2023-01-02T22:30:58.053Z,8.75
2023-01-02T22:33:24.650Z,8.76
2023-01-02T22:35:51.212Z,8.70
2023-01-02T22:38:17.735Z,8.71
2023-01-02T22:40:44.403Z,8.74
2023-01-02T22:43:15.648Z,8.84
2023-01-02T22:45:49.348Z,8.72
2023-01-02T22:48:22.990Z,8.89
2023-01-02T22:50:52.844Z,8.75
2023-01-02T22:53:23.876Z,8.74
2023-01-02T22:55:50.708Z,8.79
2023-01-02T22:58:17.954Z,8.73
2023-01-02T23:00:46.882Z,8.73
2023-01-02T23:03:15.175Z,8.70
2023-01-02T23:05:42.797Z,8.73
2023-01-02T23:08:09.370Z,8.84
2023-01-02T23:10:35.884Z,8.75
2023-01-02T23:13:02.582Z,8.75
2023-01-02T23:15:28.999Z,8.78
2023-01-02T23:18:14.037Z,8.78
2023-01-02T23:20:40.433Z,8.85
2023-01-02T23:23:07.490Z,8.76
2023-01-02T23:25:34.060Z,8.84
2023-01-02T23:28:00.496Z,8.80
2023-01-02T23:30:26.963Z,8.76
2023-01-02T23:32:53.497Z,8.73
2023-01-02T23:35:20.000Z,8.69
2023-01-02T23:37:46.494Z,8.73
2023-01-02T23:40:13.025Z,8.71
2023-01-02T23:42:39.504Z,8.76
2023-01-02T23:45:06.356Z,8.82
2023-01-02T23:47:32.796Z,8.65
2023-01-02T23:49:59.245Z,8.63
2023-01-02T23:52:25.778Z,8.53
2023-01-02T23:54:52.189Z,8.52
2023-01-02T23:57:18.677Z,8.48
2023-01-02T23:59:45.139Z,8.57
